< Typhoon 198811 1988 Season Typhoon 198813 >
Typhoon 198812 (DOYLE)
General InformationTrack Information on Google MapsDetailed Wind InformationList of All Images || Disaster Info.ResourceGoogle EarthGE AnimationAtom FeedGeoJSON
Detalied Best Track (Time Zone = UTC)
Year Month Day Hour Lat. Long. Pressure (hPa) Wind (kt) Class Image Chart
1988 8 13 00 22.0 173.0 1008 0 2 Image Chart
1988 8 13 06 21.0 173.0 1008 0 2 Image Chart
1988 8 13 12 20.0 172.8 1008 0 2 Image Chart
1988 8 13 18 19.5 172.5 1008 0 2 Image Chart
1988 8 14 00 19.0 172.0 1006 0 2 Image Chart
1988 8 14 06 19.0 171.5 1004 0 2 Image Chart
1988 8 14 12 19.1 171.0 1000 0 2 Image Chart
1988 8 14 18 19.3 170.5 996 45 3 Image Chart
1988 8 15 00 19.5 170.0 985 50 4 Image Chart
1988 8 15 06 19.6 169.2 980 55 4 Image Chart
1988 8 15 12 19.8 168.2 980 55 4 Image Chart
1988 8 15 18 20.0 167.2 980 55 4 Image Chart
1988 8 16 00 20.2 166.1 975 60 4 Image Chart
1988 8 16 06 20.5 165.5 970 65 5 Image Chart
1988 8 16 12 21.0 164.7 960 75 5 Image Chart
1988 8 16 18 21.6 164.4 940 80 5 Image Chart
1988 8 17 00 22.1 164.2 930 85 5 Image Chart
1988 8 17 06 23.0 164.3 930 90 5 Image Chart
1988 8 17 12 23.8 164.3 930 90 5 Image Chart
1988 8 17 18 24.7 164.6 930 90 5 Image Chart
1988 8 18 00 26.0 165.4 935 90 5 Image Chart
1988 8 18 06 27.0 166.0 940 90 5 Image Chart
1988 8 18 12 28.0 166.7 945 90 5 Image Chart
1988 8 18 18 29.0 167.7 950 80 5 Image Chart
1988 8 19 00 29.6 168.7 955 70 5 Image Chart
1988 8 19 06 30.3 169.5 960 70 5 Image Chart
1988 8 19 12 30.8 170.1 960 65 5 Image Chart
1988 8 19 18 31.2 170.7 965 65 5 Image Chart
1988 8 20 00 31.6 171.3 970 65 5 Image Chart
1988 8 20 06 31.9 172.2 970 65 5 Image Chart
1988 8 20 12 32.5 173.0 975 60 4 Image Chart
1988 8 20 18 33.3 173.3 980 55 4 Image Chart
1988 8 21 00 34.2 173.5 985 50 4 Image Chart
1988 8 21 06 35.1 173.3 985 50 4 Image Chart
1988 8 21 12 35.8 173.5 990 50 4 Image Chart
1988 8 21 18 36.3 173.6 990 45 3 Image Chart
1988 8 22 00 36.8 173.7 992 45 3 Image Chart
1988 8 22 06 37.3 174.0 996 40 3 Image Chart
1988 8 22 12 37.5 174.4 1000 35 3 Image Chart
1988 8 22 18 37.5 174.8 1002 35 3 Image Chart
1988 8 23 00 37.3 175.3 1004 35 3 Image Chart
1988 8 23 06 37.1 175.6 1008 0 2 Image Chart
1988 8 23 12 37.0 176.0 1016 0 2 Image Chart
1988 8 23 18 37.5 176.0 1016 0 2 Image Chart
1988 8 24 00 38.0 176.0 1018 0 2 Image Chart
1988 8 24 06 38.0 176.0 1018 0 2 Image Chart
1988 8 24 12 37.5 176.5 1018 0 2 Image Chart
1988 8 24 18 37.5 176.5 1018 0 2 Image Chart
1988 8 25 00 38.0 177.0 1016 0 6 Image Chart
1988 8 25 06 38.0 178.0 1016 0 6 Image Chart
1988 8 25 12 38.0 178.0 1016 0 6 Image Chart
Japan Meteorological Agency Best Track Data | Correction Date : 1992-10-21
< Typhoon 198811 1988 Season Typhoon 198813 >

Help